»·PEaware :: N800DW CYZP-KYKM

N800DW :: CYZP-KYKM

FLIGHT INFORMATION

Flight Status: Arrived
Operator: Privately registered:
United States
More flights under this callsign
Pilot: Scott L. (17677)
Aircraft: Unknown
(SF50)
More flights by this aircraft type
Origin: CYZP Sandspit
Canada
Destination: KYKM Yakima Air Term/Mcallister
United States
More flights between these airports :: More routes between these airports
Route: YZT BOOPY YVR V338 CONDI V495 SEA V4 TITON
File this flight plan on PilotEdge
Remarks:
Altitude:
(Current/Filed)
25,000ft
Speed:
(Current/Filed)
300kts
Departed: 10-Nov-18 03:29 PM
Arrived: 10-Nov-18 04:53 PM
Distance/Time
Traveled:
591nm/1:24
Distance/Time
To Go:
Arrived

Flight Plot

Page will automatically refresh every two minutes.

Flight plan parsing failed; only flown route is shown


Map Options




Map Legend


Flown Route
Filed Route
Departure Airport
Arrival Airport
Navaid (VOR, NDB)
Fix

Horizontal Profiles

Position Reports

Time Latitude Longitude Heading Altitude Ground
Speed
10-Nov-18 15:31 51.629752 -128.320935 171 25489ft 362kts
10-Nov-18 15:32 51.533333 -128.275841 172 25490ft 361kts
10-Nov-18 15:33 51.436708 -128.231402 172 25492ft 361kts
10-Nov-18 15:34 51.340410 -128.187459 172 25493ft 361kts
10-Nov-18 15:35 51.243720 -128.143655 172 25495ft 361kts
10-Nov-18 15:36 51.147170 -128.097125 157 25474ft 372kts
10-Nov-18 15:37 51.082186 -128.005078 136 25498ft 380kts
10-Nov-18 15:38 50.995914 -127.864516 136 25499ft 380kts
10-Nov-18 15:39 50.934216 -127.764922 136 25501ft 381kts
10-Nov-18 15:40 50.849397 -127.628645 136 25493ft 380kts
10-Nov-18 15:41 50.787469 -127.529658 136 25495ft 380kts
10-Nov-18 15:42 50.712930 -127.410960 136 25497ft 380kts
10-Nov-18 15:43 50.664344 -127.266900 104 25491ft 378kts
10-Nov-18 15:44 50.633232 -127.108015 104 25491ft 378kts
10-Nov-18 15:45 50.601482 -126.949279 104 25493ft 378kts
10-Nov-18 15:46 50.569637 -126.791336 104 25495ft 379kts
10-Nov-18 15:47 50.537444 -126.632896 104 25497ft 379kts
10-Nov-18 15:48 50.505077 -126.474968 104 25498ft 380kts
10-Nov-18 15:49 50.472362 -126.316447 105 25490ft 380kts
10-Nov-18 15:50 50.439551 -126.158973 105 25492ft 379kts
10-Nov-18 15:51 50.406505 -126.001443 105 25476ft 380kts
10-Nov-18 15:52 50.373233 -125.844088 105 25478ft 380kts
10-Nov-18 15:53 50.339782 -125.687101 105 25480ft 380kts
10-Nov-18 15:54 50.306034 -125.529900 105 25481ft 380kts
10-Nov-18 15:55 50.272001 -125.372671 105 25483ft 381kts
10-Nov-18 15:56 50.238250 -125.217856 106 25475ft 380kts
10-Nov-18 15:57 50.203932 -125.061676 106 25477ft 380kts
10-Nov-18 15:58 50.169391 -124.905636 106 25479ft 380kts
10-Nov-18 15:59 50.134537 -124.749362 106 25481ft 381kts
10-Nov-18 16:00 50.096530 -124.595046 126 25464ft 383kts
10-Nov-18 16:01 50.021320 -124.478671 139 25484ft 381kts
10-Nov-18 16:02 49.943336 -124.366269 139 25486ft 381kts
10-Nov-18 16:03 49.866461 -124.255700 140 25469ft 380kts
10-Nov-18 16:04 49.788830 -124.144598 140 25471ft 379kts
10-Nov-18 16:05 49.711482 -124.034363 140 25473ft 378kts
10-Nov-18 16:06 49.633691 -123.924036 140 25475ft 378kts
10-Nov-18 16:07 49.556097 -123.814457 140 25476ft 379kts
10-Nov-18 16:08 49.478203 -123.704934 140 25478ft 379kts
10-Nov-18 16:09 49.400166 -123.595719 140 25480ft 379kts
10-Nov-18 16:10 49.322438 -123.487451 140 25482ft 380kts
10-Nov-18 16:11 49.243715 -123.378272 140 25465ft 381kts
10-Nov-18 16:12 49.165784 -123.270638 141 25457ft 380kts
10-Nov-18 16:13 49.083706 -123.172504 169 25480ft 363kts
10-Nov-18 16:14 48.990282 -123.180911 206 25455ft 329kts
10-Nov-18 16:15 48.901325 -123.214749 200 25454ft 333kts
10-Nov-18 16:16 48.816707 -123.246665 206 25452ft 328kts
10-Nov-18 16:17 48.727885 -123.279778 202 25452ft 330kts
10-Nov-18 16:18 48.638979 -123.312315 203 25443ft 328kts
10-Nov-18 16:19 48.547254 -123.312173 158 25475ft 365kts
10-Nov-18 16:20 48.458974 -123.232646 153 25454ft 371kts
10-Nov-18 16:21 48.370238 -123.152424 154 25467ft 372kts
10-Nov-18 16:22 48.281873 -123.070980 153 25465ft 373kts
10-Nov-18 16:23 48.193438 -122.989762 152 25466ft 373kts
10-Nov-18 16:24 48.105000 -122.909304 153 25468ft 373kts
10-Nov-18 16:25 48.015974 -122.828594 153 25472ft 373kts
10-Nov-18 16:26 47.926845 -122.747944 152 25446ft 375kts
10-Nov-18 16:27 47.838671 -122.668742 152 24922ft 386kts
10-Nov-18 16:28 47.746293 -122.586005 153 24433ft 389kts
10-Nov-18 16:29 47.653531 -122.502461 153 23940ft 390kts
10-Nov-18 16:30 47.560604 -122.420493 153 23469ft 390kts
10-Nov-18 16:31 47.467013 -122.337517 154 22998ft 390kts
10-Nov-18 16:32 47.394119 -122.218631 123 22478ft 397kts
10-Nov-18 16:33 47.333180 -122.082603 123 21978ft 396kts
10-Nov-18 16:34 47.272113 -121.947819 123 21477ft 396kts
10-Nov-18 16:35 47.209738 -121.810860 123 20317ft 405kts
10-Nov-18 16:36 47.147106 -121.674117 123 19164ft 404kts
10-Nov-18 16:37 47.084476 -121.537884 123 18007ft 400kts
10-Nov-18 16:38 47.022683 -121.402591 118 16835ft 395kts
10-Nov-18 16:39 46.964539 -121.275547 115 15438ft 370kts
10-Nov-18 16:40 46.905775 -121.152893 120 13840ft 364kts
10-Nov-18 16:41 46.850143 -121.034013 120 12222ft 356kts
10-Nov-18 16:42 46.838189 -120.895808 92 10215ft 348kts
10-Nov-18 16:43 46.827938 -120.772388 93 8146ft 260kts
10-Nov-18 16:44 46.820217 -120.673474 94 8024ft 246kts
10-Nov-18 16:45 46.782565 -120.584635 128 7128ft 272kts
10-Nov-18 16:46 46.736194 -120.507105 128 5539ft 235kts
10-Nov-18 16:47 46.697482 -120.442297 129 4964ft 203kts
10-Nov-18 16:48 46.659964 -120.379883 132 4100ft 197kts
10-Nov-18 16:49 46.624661 -120.322147 136 4381ft 195kts
10-Nov-18 16:50 46.572936 -120.301893 189 3801ft 197kts
10-Nov-18 16:51 46.533125 -120.350278 247 2920ft 173kts
10-Nov-18 16:52 46.534774 -120.410078 288 2856ft 133kts
10-Nov-18 16:53 46.546447 -120.455693 286 2147ft 110kts
10-Nov-18 16:54 46.556194 -120.494350 285 1592ft 90kts
10-Nov-18 16:55 46.564502 -120.527409 285 1215ft 90kts
10-Nov-18 16:56 46.570670 -120.549449 23 1071ft 15kts
10-Nov-18 16:57 46.569577 -120.542900 106 1071ft 22kts
10-Nov-18 16:58 46.567530 -120.534959 115 1071ft 11kts
10-Nov-18 16:59 46.569322 -120.532799 143 1071ft 17kts
10-Nov-18 17:00 46.567453 -120.531088 247 1071ft 0kts

Navigation Log

Ident Type
Flight plan parsing failed, navigation log unavailable